^^
Station Historical Data
Daily Summary for May 9, 2017 Units:  English    Metric   Both
« Previous Day
Next Day »
Daily Weekly Monthly Yearly Custom
  High: Low: Average:
Temperature: 57.5 °F 39.6 °F 49.8 °F
Dew Point: 41.0 °F 31.5 °F 36.2 °F
Humidity: 87% 39% 62%
Wind Speed: 5.0mph 0.0mph 0.5mph
Wind Gust: 8.0mph - -
Wind- - WSW
Pressure: 30.02 in 29.94 in -
Precipitation: 0.00 in    
Historical Graphs
 
 
Tabular Data for May 9, 2017
Time Temperature Dew Point Pressure Wind Wind Speed Wind Gust Humidity Rainfall Rate (Hourly) Conditions
00:00 45.4 °F 36.1 °F 29.96 in Calm     70% 0.00 in BKN
00:15 45.1 °F 36.3 °F 29.96 in Calm     71% 0.00 in BKN
00:30 44.5 °F 36.0 °F 29.96 in Calm     72% 0.00 in BKN
00:45 44.1 °F 35.3 °F 29.95 in Calm   3.0 mph 71% 0.00 in BKN
01:00 44.1 °F 35.3 °F 29.95 in Calm   1.0 mph 71% 0.00 in BKN
02:15 42.3 °F 35.3 °F 29.95 in Calm   5.0 mph 76% 0.00 in BKN
02:30 42.4 °F 35.4 °F 29.94 in Calm   1.0 mph 76% 0.00 in BKN
02:45 42.4 °F 35.4 °F 29.95 in Calm   1.0 mph 76% 0.00 in BKN
03:00 42.0 °F 35.3 °F 29.95 in Calm   1.0 mph 77% 0.00 in BKN
03:15 41.5 °F 35.2 °F 29.95 in Calm     78% 0.00 in SCT
03:30 41.3 °F 35.0 °F 29.95 in Calm   1.0 mph 78% 0.00 in SCT
03:45 41.3 °F 35.3 °F 29.95 in Calm     79% 0.00 in SCT
04:00 41.9 °F 35.9 °F 29.95 in Calm   1.0 mph 79% 0.00 in SCT
04:15 41.6 °F 35.6 °F 29.94 in Calm   1.0 mph 79% 0.00 in SCT
04:30 41.0 °F 35.3 °F 29.95 in Calm     80% 0.00 in SCT
04:45 40.4 °F 35.6 °F 29.95 in Calm     83% 0.00 in SCT
05:00 40.6 °F 35.5 °F 29.96 in Calm     82% 0.00 in SCT
05:15 41.5 °F 36.1 °F 29.96 in Calm   1.0 mph 81% 0.00 in SCT
05:30 41.4 °F 36.4 °F 29.96 in Calm   1.0 mph 82% 0.00 in SCT
05:45 40.8 °F 36.0 °F 29.96 in Calm   1.0 mph 83% 0.00 in SCT
06:00 40.2 °F 35.8 °F 29.96 in Calm     84% 0.00 in SCT
06:15 39.7 °F 35.6 °F 29.96 in Calm     85% 0.00 in FEW
06:30 39.6 °F 36.0 °F 29.96 in Calm     87% 0.00 in FEW
06:45 40.3 °F 36.8 °F 29.96 in Calm   1.0 mph 87% 0.00 in FEW
07:00 41.4 °F 37.5 °F 29.97 in Calm   1.0 mph 86% 0.00 in FEW
07:15 42.4 °F 37.9 °F 29.98 in Calm   2.0 mph 84% 0.00 in CLR
07:30 43.1 °F 38.3 °F 29.98 in Calm   2.0 mph 83% 0.00 in CLR
07:45 43.6 °F 38.2 °F 29.98 in Calm   2.0 mph 81% 0.00 in CLR
08:00 44.9 °F 38.4 °F 29.98 in Calm   2.0 mph 78% 0.00 in CLR
08:15 46.6 °F 38.1 °F 29.98 in WSW 1.0 mph 2.0 mph 72% 0.00 in SCT
08:30 49.2 °F 39.0 °F 29.99 in Calm   2.0 mph 68% 0.00 in SCT
08:45 49.6 °F 38.7 °F 29.99 in WSW 1.0 mph 4.0 mph 66% 0.00 in SCT
09:00 49.3 °F 39.2 °F 30.00 in NNW 1.0 mph 4.0 mph 68% 0.00 in SCT
09:15 49.8 °F 39.7 °F 30.00 in Calm   5.0 mph 68% 0.00 in FEW
09:30 50.2 °F 39.3 °F 30.01 in Calm   6.0 mph 66% 0.00 in FEW
09:45 51.3 °F 39.1 °F 30.01 in NNW 1.0 mph 5.0 mph 63% 0.00 in FEW
10:00 52.2 °F 40.0 °F 30.00 in North 1.0 mph 6.0 mph 63% 0.00 in FEW
10:15 52.4 °F 38.9 °F 30.00 in West 1.0 mph 5.0 mph 60% 0.00 in FEW
10:30 54.0 °F 37.7 °F 30.00 in WSW 1.0 mph 6.0 mph 54% 0.00 in FEW
10:45 55.4 °F 37.6 °F 29.99 in Calm   4.0 mph 51% 0.00 in FEW
11:00 55.3 °F 35.9 °F 29.99 in Calm   6.0 mph 48% 0.00 in FEW
11:15 56.3 °F 35.2 °F 29.99 in South 2.0 mph 8.0 mph 45% 0.00 in BKN
11:30 56.1 °F 35.0 °F 29.98 in SSE 5.0 mph 8.0 mph 45% 0.00 in BKN
11:45 56.5 °F 36.5 °F 29.98 in SSW 3.0 mph 8.0 mph 47% 0.00 in BKN
12:00 55.2 °F 34.8 °F 29.98 in NW 2.0 mph 8.0 mph 46% 0.00 in BKN
12:15 53.9 °F 35.7 °F 29.99 in Calm   8.0 mph 50% 0.00 in BKN
12:30 54.1 °F 35.3 °F 29.99 in SW 1.0 mph 5.0 mph 49% 0.00 in BKN
12:45 54.6 °F 36.3 °F 29.98 in SW 1.0 mph 4.0 mph 50% 0.00 in BKN
13:00 54.8 °F 36.0 °F 29.98 in West 2.0 mph 6.0 mph 49% 0.00 in BKN
13:15 55.3 °F 33.7 °F 29.98 in ENE 1.0 mph 6.0 mph 44% 0.00 in BKN
13:30 55.3 °F 34.3 °F 29.99 in Calm   6.0 mph 45% 0.00 in BKN
13:45 55.9 °F 34.8 °F 29.98 in West 1.0 mph 4.0 mph 45% 0.00 in BKN
14:00 56.2 °F 31.5 °F 29.98 in NNW 1.0 mph 6.0 mph 39% 0.00 in BKN
14:15 56.8 °F 33.3 °F 29.97 in North 5.0 mph 8.0 mph 41% 0.00 in BKN
14:30 57.2 °F 33.7 °F 29.97 in SSW 2.0 mph 8.0 mph 41% 0.00 in BKN
14:45 56.4 °F 32.9 °F 29.97 in Calm   6.0 mph 41% 0.00 in BKN
15:00 56.1 °F 33.3 °F 29.97 in West 1.0 mph 4.0 mph 42% 0.00 in BKN
15:15 56.7 °F 32.6 °F 29.97 in WSW 2.0 mph 5.0 mph 40% 0.00 in BKN
15:30 56.2 °F 32.8 °F 29.97 in West 2.0 mph 4.0 mph 41% 0.00 in BKN
15:45 56.5 °F 32.4 °F 29.96 in Calm   5.0 mph 40% 0.00 in BKN
16:00 57.2 °F 33.0 °F 29.95 in Calm   4.0 mph 40% 0.00 in BKN
16:15 57.5 °F 32.8 °F 29.95 in NNW 1.0 mph 5.0 mph 39% 0.00 in BKN
16:30 57.1 °F 32.3 °F 29.95 in North 1.0 mph 6.0 mph 39% 0.00 in BKN
16:45 57.1 °F 33.0 °F 29.96 in Calm   4.0 mph 40% 0.00 in BKN
17:00 56.3 °F 31.6 °F 29.96 in Calm   5.0 mph 39% 0.00 in BKN
17:15 56.6 °F 32.6 °F 29.96 in NW 1.0 mph 4.0 mph 40% 0.00 in BKN
17:30 56.5 °F 32.4 °F 29.96 in NW 1.0 mph 5.0 mph 40% 0.00 in BKN
17:45 56.5 °F 31.8 °F 29.97 in NNW 2.0 mph 8.0 mph 39% 0.00 in BKN
18:00 56.3 °F 32.9 °F 29.97 in Calm   6.0 mph 41% 0.00 in BKN
18:15 55.9 °F 33.1 °F 29.98 in NNW 1.0 mph 5.0 mph 42% 0.00 in BKN
18:30 55.9 °F 33.1 °F 29.98 in Calm   5.0 mph 42% 0.00 in BKN
18:45 55.9 °F 32.5 °F 29.98 in North 3.0 mph 6.0 mph 41% 0.00 in BKN
19:00 55.4 °F 32.7 °F 29.99 in Calm   5.0 mph 42% 0.00 in BKN
19:15 54.9 °F 38.1 °F 29.99 in Calm   3.0 mph 53% 0.00 in BKN
19:30 54.4 °F 37.6 °F 29.99 in Calm   2.0 mph 53% 0.00 in BKN
19:45 53.8 °F 37.1 °F 29.99 in Calm   1.0 mph 53% 0.00 in BKN
20:00 52.9 °F 39.8 °F 30.00 in Calm   2.0 mph 61% 0.00 in BKN
20:15 52.0 °F 40.6 °F 30.00 in Calm   1.0 mph 65% 0.00 in BKN
20:30 51.3 °F 40.7 °F 30.01 in Calm   1.0 mph 67% 0.00 in BKN
20:45 50.8 °F 41.0 °F 30.01 in Calm   2.0 mph 69% 0.00 in BKN
21:00 50.4 °F 40.6 °F 30.01 in Calm   1.0 mph 69% 0.00 in BKN
21:15 50.1 °F 40.7 °F 30.01 in Calm   2.0 mph 70% 0.00 in BKN
21:30 49.7 °F 40.7 °F 30.02 in Calm     71% 0.00 in BKN
21:45 49.4 °F 40.7 °F 30.02 in Calm     72% 0.00 in BKN
22:00 49.3 °F 39.9 °F 30.02 in Calm   1.0 mph 70% 0.00 in BKN
22:15 49.1 °F 39.0 °F 30.02 in Calm   1.0 mph 68% 0.00 in BKN
22:30 48.8 °F 38.7 °F 30.02 in Calm   1.0 mph 68% 0.00 in BKN
22:45 48.4 °F 39.1 °F 30.01 in Calm     70% 0.00 in BKN
23:00 48.0 °F 38.7 °F 30.01 in Calm     70% 0.00 in BKN
23:15 47.7 °F 38.8 °F 30.01 in Calm     71% 0.00 in CLR
23:30 47.0 °F 38.8 °F 30.01 in Calm     73% 0.00 in CLR
23:45 46.2 °F 39.0 °F 30.01 in Calm     76% 0.00 in CLR
TarryTown NY Weather
Compliments of Weather Underground - 1.5 mb